Algerita, Texas
Current Conditions -  °F | °C
As of 10:35 AM on Monday 24 Nov 2014 (Local Time) from KAQO Reporting Station
Clear Clear  
Wind Chill: 55°   Ceiling: Unl
Heat Index: 55°   Visibility: 10mi
Dew Point: 30°   Wind: 5mph
Humidity: 38%   Direction: 340°NNW
Pressure: 30.16"   Gusts: NA
Location:  31.0718°N, 98.8001°W
Report Text: KAQO 241635Z AUTO 34004KT 10SM CLR 13/M01 A3016 RMK AO2
Loading
Personal Weather Stations






























Interactive Weather Map New forecast layout! Learn more

10-Day Weather Forecast

Advertisements
Track Severe Weather on mobile